花巻空港

2023/11/22

緊急消防援助隊北海道東北ブロック合同訓練 花巻空港・三陸 2023/11/18 sat

今回の遠征は、出張先の関東から週末旅行。密かに計画していたところ、河原同志が行くと聞いて、行動を共にすることに。

RJSI 180000Z 16003KT 130V190 9999 FEW020 SCT030 BKN070 08/05 Q0999

20231118_0rjsi_00shinhanamaki

新幹線で新花巻駅。相棒は、ちょい前花巻空港到着の旅客機で。レンタカー利用で駅でピックアップしてもらいます。

20231118_0rjsi_01sendai

食料調達で寄ったコンビニに、仙台市消防局航空隊。幸先良い?

20231118_0rjsi_02ja06fj

まず空港周辺をリサーチ。飛行機の見える丘についたらフジドさん離陸

FDA352 RJSI-RJNA JA06FJ ERJ-175STD

20231118_0rjsi_03hme

花巻VOR/DME(HPE)

20231118_0rjsi_04ja04fd

JA04FD AS365N3 宮城県防災

指揮支隊部隊輸送訓練から帰ってきました。

20231118_0rjsi_05swan

白鳥さんが大編隊で空港通過

20231118_0rjsi_06swan

美しい

20231118_0rjsi_07hme

今回の訓練参加のヘリは、ブロック内各県耐空に入っているのが多くて、札幌市、岩手県、宮城県、福島県、岩手県警、陸自、空自となっている。予定では札幌市が到着していなくてはならないのだが、悪天候で進出できない模様。

20231118_0rjsi_08

空港をぐるっと回って、旧空港ターミナルの花巻市交流会館へ

20231118_0rjsi_09ja04fd

屋上はターミナルとして使われている当時と変わっていない。

20231118_0rjsi_10

こんな展示もそのまま放置?

RJSI 180100Z VRB02KT 9999 FEW020 SCT030 BKN070 09/04 Q0998

20231118_0rjsi_11ja04fd

天候が悪いので、仙台に帰る模様

20231118_0rjsi_12ja04fd

20231118_0rjsi_13ja04fd

ローリングテイクオフで出発 お手ふりいただきました。

20231118_0rjsi_14ja04fd

風の噂で、福島防災は天候を見て午後からの展開だとか

20231118_0rjsi_15ja412x

先行偵察に上がっていた岩手県警が帰ってきました。

20231118_0rjsi_16ja412x

初めて見る412X

20231118_0rjsi_17ja412x

JA412X B412X 岩手県警察

20231118_0rjsi_18ja412x

警察使用スポットはシエラ

20231118_0rjsi_19ja6772

続けて岩手県防災 本務機は耐空中で、東邦航空の代替機。もともとは北海道警「だいせつ2号」

20231118_0rjsi_20ja6772

JA6772 B412EP THK 岩手県防災

20231118_0rjsi_21ja6772

着陸ポイントはコンクリートで強化されてるようで、慎重にそこに降ろします。

20231118_0rjsi_22ja6772

お腹すいたー

20231118_0rjsi_23ja6772

すぐ格納されてしまいました。

20231118_0rjsi_24ja412x

先に到着してましたが、給油は後。おやおや新しいトーイング機器。これならタイヤつけなくても移動できます。

20231118_0rjsi_25ja412x

ビル横に格納庫があって、そこまで移動

20231118_0rjsi_26ja412x

IPはIWATE POLICEなのね

RJSI 180200Z 19005KT 160V230 9999 -SHRA FEW020 BKN040 BKN050 09/05 Q0997

小雨模様ですが、まもなく定期便が到着するので、それを見てから転進とします。

20231118_0rjsi_27ja221j

ファイナルに来たのを待っていると、あらG/A

20231118_0rjsi_28ja221j

天候、風は着陸には問題ないんだけど、なんだろう?

20231118_0rjsi_29ja221j

上空でトラブルシュートして、30分ほどかかって降りてきました。

20231118_0rjsi_31ja221j

JAL2831 RJCC-RJSI JA221J ERJ-170STD

20231118_0rjsi_32ja221j

いつもなら珍しいもん見たと喜ぶのですが、後の行程を考えると、ハラハラしています。

20231118_0rjsi_33ja221j

20231118_0rjsi_34

20231118_0rjsi_35

天候も悪くなってきたので、空部隊はないのかなぁとあきらめ気分で沿岸へ出発

RJSI 180300Z 22008KT 180V250 9999 -SHRA FEW020 SCT040 BKN050 09/04 Q0997

20231118_1sanriku_36hanamaki

ナビをしながら釜石自動車道 なになに前方に軍団

20231118_1sanriku_37ootsuchi

山形県隊でした。当初は山田まで行く予定でしたが、後をつけてみて、大槌で降ります。

20231118_1sanriku_38ootsuchifd

着いたところは、大槌消防署

20231118_1sanriku_39ootsuchifd

同じ山形県隊の先行部隊もいました。

20231118_1sanriku_40ootsuchifd

なるほど。町の消防にしては、広大な駐車場は、それが目的なのね。

20231118_1sanriku_41ootsuchifd

山形県大隊そろいました。としてると、先行部隊が出発。

20231118_1sanriku_42ootsuchifd

見送ります。住民の方も見学に来ています。またしても、後を追います。

20231118_1sanriku_43yamada

山田南で追いつきましたが・・

20231118_1sanriku_44ja04fd

宮城県防災さん、すでに飛んでる・・ あの30分があだ?、それとも寄道があだ?

20231118_1sanriku_45ja04fd

船越公園での津波複合災害救助救出訓練

###

 

20231118_1sanriku_46ja04fd

###

20231118_1sanriku_47ja04fd

公園の芝地に着陸して

20231118_1sanriku_48yamada

救急隊が引き取りに向かいます。現場安全支援は新潟県航空隊でした。

20231118_1sanriku_49ja04fd

救急隊に引継ぎ後は、ドラム缶給油

20231118_1sanriku_50yamada

救急車に搭載

20231118_1sanriku_51yamada

会場には、たくさん参集して訓練が始まっているようですが・・

20231118_1sanriku_52yamada

お、中型水陸両用車がいた

20231118_1sanriku_53yamada

え、ここから入水するの・・

20231118_1sanriku_54yamada

無事進水 後ろ髪惹かれますが、火災対応訓練へ急ぎます。

20231118_1sanriku_55yamadar

航空自衛隊山田分屯基地(第37警戒隊)

20231118_1sanriku_56miyako

また部隊に追いつきました。今度は福島県隊

20231118_1sanriku_57taro

ついていくと田老会場

20231118_1sanriku_58jg

火災対応訓練はすでに終わって、帰投していきます。残念。

20231118_1sanriku_59taro

周辺一帯に参集してます。確認できたのは、福島、新潟、岩手、北海道、宮城

20231118_1sanriku_60ja6772

ヘリポートに向かうも、最後の岩手防災さん離陸

20231118_1sanriku_61taro

再度戻って、津波総合災害救助救出訓練を見学

20231118_1sanriku_62taro

福島県隊 到着してすぐ現場投入です。

20231118_1sanriku_63taro

重機で道路啓開

20231118_1sanriku_64taro

ここが福島県隊の指揮所

20231118_1sanriku_65taro

震災後に出来た防潮堤に上ると、被災したたろう観光ホテルか見えます。

20231118_1sanriku_66taro

新しい防潮堤を超えると漁港があります。

訓練は、いろんな場所で同時進行ですが、今日は、ここら辺で宮古市内に戻って、反省会と明日の作戦会議へ。

 

| | コメント (0)

2006/04/09

空想出 花巻空港 2000/4/15

20000415_rjsi_120000415_rjsi_220000415_rjsi_3昨日の厚木、本日の熊谷、横須賀とシーズン開始ですね。でも、チョット遠征はできず。本日の想い出紀行は、霞目飛行場に遠征の際、よってきた花巻空港です。新花巻駅から歩いて、どえらいしんどい思いをした記憶があります。

左:黒沢カラーが懐かしいMD90 JA007D 中:ターミナルの反対側からはこんな写真も撮れます 右:まだ滑走路延長工事は始まってません

| | コメント (0) | トラックバック (0)

その他のカテゴリー

BI Boading record aircraft Boading record ship FlightTracking lighthouse NAVAIDS NAVY RJNT LOG SKY MASSAGE US NAVY USMC うみ おか そら てつ アクシデント エアロック チーム室屋 ヘリポート 三沢飛行場 上五島空港 下地島空港 下総飛行場 与論空港 与那国空港 中標津空港 中部国際空港 久米島空港 五島福江空港 仙台空港 伊江島空港 但馬空港 佐賀空港 入間飛行場 八尾空港 八戸飛行場 出雲空港 函館空港 利尻空港 北九州空港 北大東空港 十勝飛行場 千歳飛行場 南大東空港 博物館 厚木飛行場 名古屋飛行場 喜界空港 嘉手納飛行場 場外 壱岐空港 多良間空港 大分空港 大村飛行場 大湊飛行場 大阪国際空港 大館能代空港 天草空港 奄美空港 奥尻空港 宇部山口空港 宇都宮飛行場 宮古空港 宮崎空港 富山空港 対馬空港 小松島飛行場 小松飛行場 屋久島空港 山形空港 岐阜飛行場 岡南飛行場 岡山空港 岩国飛行場 帯広空港 広島空港 広島西飛行場 庄内空港 徳之島空港 徳島飛行場 慶良間空港 成田国際空港 新島空港 新潟空港 新田原飛行場 旭川空港 旭川飛行場 明野飛行場 普天間飛行場 木更津飛行場 札幌飛行場 東京国際空港 松山空港 松島飛行場 松本空港 枕崎飛行場 横田飛行場 沖永良部空港 波照間空港 浜松飛行場 海上保安庁 海上自衛隊 海外 熊本空港 百里飛行場 相馬原飛行場 石垣空港 石見空港 礼文空港 神戸空港 神津島空港 福井空港 福岡空港 福島空港 秋田空港 稚内空港 種子島空港 空撮 立川飛行場 竜ヶ崎飛行場 築城飛行場 粟国空港 美保飛行場 能登空港 舞鶴飛行場 航空自衛隊 芦屋飛行場 花巻空港 調布飛行場 警務消防 那覇空港 釧路空港 長崎空港 関西国際空港 陸上自衛隊 隠岐空港 霞ヶ浦飛行場 霞目飛行場 青森空港 静岡空港 静浜飛行場 飛行場跡 飛行船 鹿児島空港 鹿屋飛行場